Ashland, WI

11:26 PM CDT on October 21, 2014 (GMT -0500)
Near Northland College | Change Station
CLOSE
Current Station
Personal Weather Station
Location: Ashland, WI
Elevation: 689 ft
Nearby Weather Stations

Elev 689 ft 46.58 °N, 90.88 °W | Updated 57 seconds ago

Fog
Fog
32.0 °F
Feels Like 32 °F
N
0.0
Wind Variable Wind from North
Gusts 0.0 mph

Today
High -- | Low -- °F
--% Chance of Precip.
Yesterday
High -- | Low -- °F
Precip. -- in
7:29 AM 6:05 PM
Waning Crescent, 3% visible
Pressure 30.25 in
Visibility 1.8 miles
Clouds Few 200 ft
Windchill 32 °F
Dew Point 30 °F
Humidity 92%
Rainfall 0.00 in
Snow Depth Not available.
UV 0 out of 12
Pollen 1.00 out of 12
Air Quality Not available.
Flu Activity Not available.
SPECI KASX 220421Z AUTO 26003KT 1 3/4SM BR FEW002 M01/M02 A3025 RMK AO2 T10111017

More Conditions Fewer Conditions

Pressure 30.25 in
Visibility 1.8 miles
Clouds Few 200 ft
Windchill 32 °F
Dew Point 30 °F
Humidity 92%
Rainfall 0.00 in
Snow Depth Not available.
UV 0 out of 12
Pollen 1.00 out of 12
Air Quality Not available.
Flu Activity Not available.
SPECI KASX 220421Z AUTO 26003KT 1 3/4SM BR FEW002 M01/M02 A3025 RMK AO2 T10111017

More Conditions Fewer Conditions

10-Day Weather Forecast

Almanac

Astronomy

Oct. 21, 2014 Rise Set
Actual Time 7:29 AM CDT 6:05 PM CDT
Civil Twilight 6:58 AM CDT 6:36 PM CDT
Nautical Twilight 6:23 AM CDT 7:11 PM CDT
Astronomical Twilight 5:48 AM CDT 7:46 PM CDT
Moon 5:06 AM CDT (10/21) 5:06 PM CDT (10/21)
Length of Visible Light 11h 38m
Length of Day
10h 36m
Tomorrow will be 3m 8s shorter.
Waning Crescent, 3% of the Moon is Illuminated
Oct 22
Waning Crescent
Oct 23
New
Oct 30
First Quarter
Nov 6
Full
Nov 14
Last Quarter

Yesterday's Extremes

State Highs State Lows

Community

WunderPhotos

Upload Photos

1,763,880 photos uploaded!

Nearby

Snow Depth

Station Depth Elevation
No new snow has been reported.

Earthquake Activity

City Distance Mag. Time & Date
No recent earthquake activity has been reported nearby.
Minimum magnitude displayed is 2.5.

Coastal Water Temperatures

Place Temperature
Duluth, MN 54.0 °F

Nearby Weather Stations